Terminal Aerodrome Forecast
Issued by NWS Goodland, KS

Home | Current Version | Previous Version | Text Only | Print | Product List | Glossary On
Versions: 1 2 3 4 5 6 7 8 9 10 11 12 13 14 15 16 17 18
000
FTUS43 KGLD 230818 AAA
TAFGLD
TAF AMD
KGLD 230818Z 2308/2406 13006KT P6SM FEW007 SCT120
      TEMPO 2309/2312 3SM BR SCT007 BKN120
     FM231300 28005KT P6SM FEW040 SCT120
     FM231700 21010KT P6SM SCT120=

USA.gov is the U.S. government's official web portal to all federal, state and local government web resources and services.